sensor_id;sensor_type;location;lat;lon;timestamp;temperature;humidity
2100;DHT22;1055;48.854;9.302;2023-08-21T00:02:25;24.90;99.90
2100;DHT22;1055;48.854;9.302;2023-08-21T00:04:53;24.80;99.90
2100;DHT22;1055;48.854;9.302;2023-08-21T00:07:19;24.60;99.90
2100;DHT22;1055;48.854;9.302;2023-08-21T00:09:45;24.70;99.90
2100;DHT22;1055;48.854;9.302;2023-08-21T00:12:12;24.80;99.90
2100;DHT22;1055;48.854;9.302;2023-08-21T00:14:39;25.00;99.90
2100;DHT22;1055;48.854;9.302;2023-08-21T00:17:05;25.30;99.90
2100;DHT22;1055;48.854;9.302;2023-08-21T00:19:32;25.20;99.90
2100;DHT22;1055;48.854;9.302;2023-08-21T00:21:59;25.10;99.90
2100;DHT22;1055;48.854;9.302;2023-08-21T00:24:25;25.30;99.90
2100;DHT22;1055;48.854;9.302;2023-08-21T00:26:50;24.80;99.90
2100;DHT22;1055;48.854;9.302;2023-08-21T00:29:16;24.60;99.90
2100;DHT22;1055;48.854;9.302;2023-08-21T00:31:43;24.60;99.90
2100;DHT22;1055;48.854;9.302;2023-08-21T00:34:11;24.80;99.90
2100;DHT22;1055;48.854;9.302;2023-08-21T00:36:37;24.90;99.90
2100;DHT22;1055;48.854;9.302;2023-08-21T00:39:03;24.70;99.90
2100;DHT22;1055;48.854;9.302;2023-08-21T00:41:28;24.90;99.90
2100;DHT22;1055;48.854;9.302;2023-08-21T00:43:54;25.20;99.90
2100;DHT22;1055;48.854;9.302;2023-08-21T00:46:20;25.40;99.90
2100;DHT22;1055;48.854;9.302;2023-08-21T00:48:46;25.30;99.90
2100;DHT22;1055;48.854;9.302;2023-08-21T00:51:12;25.40;99.90
2100;DHT22;1055;48.854;9.302;2023-08-21T00:53:40;25.50;99.90
2100;DHT22;1055;48.854;9.302;2023-08-21T00:56:06;25.50;99.90
2100;DHT22;1055;48.854;9.302;2023-08-21T00:58:32;25.60;99.90
2100;DHT22;1055;48.854;9.302;2023-08-21T01:00:59;25.70;99.90
2100;DHT22;1055;48.854;9.302;2023-08-21T01:03:26;25.80;99.90
2100;DHT22;1055;48.854;9.302;2023-08-21T01:05:54;25.90;99.90
2100;DHT22;1055;48.854;9.302;2023-08-21T01:08:30;25.70;99.90
2100;DHT22;1055;48.854;9.302;2023-08-21T01:11:31;25.80;99.90
2100;DHT22;1055;48.854;9.302;2023-08-21T01:14:23;25.70;99.90
2100;DHT22;1055;48.854;9.302;2023-08-21T01:16:58;25.80;99.90
2100;DHT22;1055;48.854;9.302;2023-08-21T01:21:59;24.30;99.90
2100;DHT22;1055;48.854;9.302;2023-08-21T01:24:26;24.00;99.90
2100;DHT22;1055;48.854;9.302;2023-08-21T01:26:52;24.00;99.90
2100;DHT22;1055;48.854;9.302;2023-08-21T01:29:18;23.80;99.90
2100;DHT22;1055;48.854;9.302;2023-08-21T01:31:50;23.80;99.90
2100;DHT22;1055;48.854;9.302;2023-08-21T01:34:18;23.70;99.90
2100;DHT22;1055;48.854;9.302;2023-08-21T01:36:45;23.60;99.90
2100;DHT22;1055;48.854;9.302;2023-08-21T01:39:11;23.50;99.90
2100;DHT22;1055;48.854;9.302;2023-08-21T01:41:38;23.60;99.90
2100;DHT22;1055;48.854;9.302;2023-08-21T01:44:04;23.30;99.90
2100;DHT22;1055;48.854;9.302;2023-08-21T01:46:30;23.30;99.90
2100;DHT22;1055;48.854;9.302;2023-08-21T01:48:56;23.10;99.90
2100;DHT22;1055;48.854;9.302;2023-08-21T01:51:22;22.90;99.90
2100;DHT22;1055;48.854;9.302;2023-08-21T01:53:48;22.80;99.90
2100;DHT22;1055;48.854;9.302;2023-08-21T01:56:13;22.60;99.90
2100;DHT22;1055;48.854;9.302;2023-08-21T01:58:39;22.80;99.90
2100;DHT22;1055;48.854;9.302;2023-08-21T02:01:05;22.80;99.90
2100;DHT22;1055;48.854;9.302;2023-08-21T02:03:31;22.80;99.90
2100;DHT22;1055;48.854;9.302;2023-08-21T02:05:57;22.70;99.90
2100;DHT22;1055;48.854;9.302;2023-08-21T02:08:30;22.80;99.90
2100;DHT22;1055;48.854;9.302;2023-08-21T02:10:57;22.80;99.90
2100;DHT22;1055;48.854;9.302;2023-08-21T02:13:22;22.70;99.90
2100;DHT22;1055;48.854;9.302;2023-08-21T02:15:48;22.60;99.90
2100;DHT22;1055;48.854;9.302;2023-08-21T02:18:14;22.50;99.90
2100;DHT22;1055;48.854;9.302;2023-08-21T02:24:03;22.50;99.90
2100;DHT22;1055;48.854;9.302;2023-08-21T02:26:31;22.60;99.90
2100;DHT22;1055;48.854;9.302;2023-08-21T02:28:57;22.60;99.90
2100;DHT22;1055;48.854;9.302;2023-08-21T02:31:23;22.50;99.90
2100;DHT22;1055;48.854;9.302;2023-08-21T02:33:49;22.50;99.90
2100;DHT22;1055;48.854;9.302;2023-08-21T02:36:15;22.50;99.90
2100;DHT22;1055;48.854;9.302;2023-08-21T02:38:41;22.50;99.90
2100;DHT22;1055;48.854;9.302;2023-08-21T02:41:07;22.60;99.90
2100;DHT22;1055;48.854;9.302;2023-08-21T02:43:34;22.60;99.90
2100;DHT22;1055;48.854;9.302;2023-08-21T02:46:00;22.60;99.90
2100;DHT22;1055;48.854;9.302;2023-08-21T02:48:27;22.80;99.90
2100;DHT22;1055;48.854;9.302;2023-08-21T02:50:52;22.70;99.90
2100;DHT22;1055;48.854;9.302;2023-08-21T02:53:18;22.70;99.90
2100;DHT22;1055;48.854;9.302;2023-08-21T02:55:44;23.00;99.90
2100;DHT22;1055;48.854;9.302;2023-08-21T02:58:12;23.00;99.90
2100;DHT22;1055;48.854;9.302;2023-08-21T03:00:37;23.00;99.90
2100;DHT22;1055;48.854;9.302;2023-08-21T03:03:04;22.90;99.90
2100;DHT22;1055;48.854;9.302;2023-08-21T03:05:31;22.90;99.90
2100;DHT22;1055;48.854;9.302;2023-08-21T03:07:58;22.80;99.90
2100;DHT22;1055;48.854;9.302;2023-08-21T03:10:25;23.10;99.90
2100;DHT22;1055;48.854;9.302;2023-08-21T03:12:55;23.20;99.90
2100;DHT22;1055;48.854;9.302;2023-08-21T03:15:20;23.40;99.90
2100;DHT22;1055;48.854;9.302;2023-08-21T03:17:46;23.30;99.90
2100;DHT22;1055;48.854;9.302;2023-08-21T03:20:12;23.40;99.90
2100;DHT22;1055;48.854;9.302;2023-08-21T03:22:37;23.30;99.90
2100;DHT22;1055;48.854;9.302;2023-08-21T03:25:04;23.40;99.90
2100;DHT22;1055;48.854;9.302;2023-08-21T03:27:30;23.40;99.90
2100;DHT22;1055;48.854;9.302;2023-08-21T03:29:55;23.40;99.90
2100;DHT22;1055;48.854;9.302;2023-08-21T03:32:21;23.00;99.90
2100;DHT22;1055;48.854;9.302;2023-08-21T03:34:46;22.90;99.90
2100;DHT22;1055;48.854;9.302;2023-08-21T03:37:12;22.60;99.90
2100;DHT22;1055;48.854;9.302;2023-08-21T03:39:37;22.40;99.90
2100;DHT22;1055;48.854;9.302;2023-08-21T03:42:04;22.20;99.90
2100;DHT22;1055;48.854;9.302;2023-08-21T03:44:31;22.10;99.90
2100;DHT22;1055;48.854;9.302;2023-08-21T03:46:57;21.90;99.90
2100;DHT22;1055;48.854;9.302;2023-08-21T03:49:23;22.00;99.90
2100;DHT22;1055;48.854;9.302;2023-08-21T03:51:48;22.10;99.90
2100;DHT22;1055;48.854;9.302;2023-08-21T03:54:14;22.50;99.90
2100;DHT22;1055;48.854;9.302;2023-08-21T03:56:39;22.80;99.90
2100;DHT22;1055;48.854;9.302;2023-08-21T03:59:05;23.00;99.90
2100;DHT22;1055;48.854;9.302;2023-08-21T04:01:31;23.10;99.90
2100;DHT22;1055;48.854;9.302;2023-08-21T04:03:57;23.30;99.90
2100;DHT22;1055;48.854;9.302;2023-08-21T04:06:24;23.10;99.90
2100;DHT22;1055;48.854;9.302;2023-08-21T04:08:49;22.90;99.90
2100;DHT22;1055;48.854;9.302;2023-08-21T04:11:15;22.80;99.90
2100;DHT22;1055;48.854;9.302;2023-08-21T04:13:41;22.90;99.90
2100;DHT22;1055;48.854;9.302;2023-08-21T04:16:06;22.60;99.90
2100;DHT22;1055;48.854;9.302;2023-08-21T04:18:34;22.40;99.90
2100;DHT22;1055;48.854;9.302;2023-08-21T04:21:02;22.40;99.90
2100;DHT22;1055;48.854;9.302;2023-08-21T04:23:28;22.40;99.90
2100;DHT22;1055;48.854;9.302;2023-08-21T04:26:00;22.50;99.90
2100;DHT22;1055;48.854;9.302;2023-08-21T04:28:26;22.50;99.90
2100;DHT22;1055;48.854;9.302;2023-08-21T04:30:52;22.80;99.90
2100;DHT22;1055;48.854;9.302;2023-08-21T04:33:18;22.80;99.90
2100;DHT22;1055;48.854;9.302;2023-08-21T04:35:45;22.80;99.90
2100;DHT22;1055;48.854;9.302;2023-08-21T04:38:10;22.90;99.90
2100;DHT22;1055;48.854;9.302;2023-08-21T04:40:36;22.80;99.90
2100;DHT22;1055;48.854;9.302;2023-08-21T04:43:01;22.60;99.90
2100;DHT22;1055;48.854;9.302;2023-08-21T04:45:27;22.30;99.90
2100;DHT22;1055;48.854;9.302;2023-08-21T04:47:52;22.40;99.90
2100;DHT22;1055;48.854;9.302;2023-08-21T04:50:19;22.30;99.90
2100;DHT22;1055;48.854;9.302;2023-08-21T04:52:46;22.30;99.90
2100;DHT22;1055;48.854;9.302;2023-08-21T04:55:11;22.10;99.90
2100;DHT22;1055;48.854;9.302;2023-08-21T04:57:37;21.80;99.90
2100;DHT22;1055;48.854;9.302;2023-08-21T05:00:03;21.70;99.90
2100;DHT22;1055;48.854;9.302;2023-08-21T05:02:29;21.80;99.90
2100;DHT22;1055;48.854;9.302;2023-08-21T05:04:55;21.70;99.90
2100;DHT22;1055;48.854;9.302;2023-08-21T05:07:20;21.90;99.90
2100;DHT22;1055;48.854;9.302;2023-08-21T05:09:46;22.10;99.90
2100;DHT22;1055;48.854;9.302;2023-08-21T05:12:11;22.00;99.90
2100;DHT22;1055;48.854;9.302;2023-08-21T05:14:37;21.80;99.90
2100;DHT22;1055;48.854;9.302;2023-08-21T05:17:03;21.70;99.90
2100;DHT22;1055;48.854;9.302;2023-08-21T05:19:30;21.70;99.90
2100;DHT22;1055;48.854;9.302;2023-08-21T05:21:59;21.70;99.90
2100;DHT22;1055;48.854;9.302;2023-08-21T05:24:24;21.70;99.90
2100;DHT22;1055;48.854;9.302;2023-08-21T05:26:50;21.80;99.90
2100;DHT22;1055;48.854;9.302;2023-08-21T05:29:16;21.80;99.90
2100;DHT22;1055;48.854;9.302;2023-08-21T05:31:41;21.80;99.90
2100;DHT22;1055;48.854;9.302;2023-08-21T05:34:07;22.10;99.90
2100;DHT22;1055;48.854;9.302;2023-08-21T05:36:33;22.00;99.90
2100;DHT22;1055;48.854;9.302;2023-08-21T05:39:01;22.10;99.90
2100;DHT22;1055;48.854;9.302;2023-08-21T05:41:27;22.10;99.90
2100;DHT22;1055;48.854;9.302;2023-08-21T05:43:52;22.20;99.90
2100;DHT22;1055;48.854;9.302;2023-08-21T05:46:18;22.20;99.90
2100;DHT22;1055;48.854;9.302;2023-08-21T05:48:43;22.30;99.90
2100;DHT22;1055;48.854;9.302;2023-08-21T05:51:09;22.40;99.90
2100;DHT22;1055;48.854;9.302;2023-08-21T05:53:34;22.60;99.90
2100;DHT22;1055;48.854;9.302;2023-08-21T05:56:00;22.90;99.90
2100;DHT22;1055;48.854;9.302;2023-08-21T05:58:26;23.10;99.90
2100;DHT22;1055;48.854;9.302;2023-08-21T06:00:55;23.30;99.90
2100;DHT22;1055;48.854;9.302;2023-08-21T06:03:21;23.50;99.90
2100;DHT22;1055;48.854;9.302;2023-08-21T06:05:47;23.40;99.90
2100;DHT22;1055;48.854;9.302;2023-08-21T06:08:13;23.10;99.90
2100;DHT22;1055;48.854;9.302;2023-08-21T06:10:38;23.10;99.90
2100;DHT22;1055;48.854;9.302;2023-08-21T06:13:04;23.10;99.90
2100;DHT22;1055;48.854;9.302;2023-08-21T06:15:30;23.10;99.90
2100;DHT22;1055;48.854;9.302;2023-08-21T06:17:55;23.00;99.90
2100;DHT22;1055;48.854;9.302;2023-08-21T06:20:21;23.10;99.90
2100;DHT22;1055;48.854;9.302;2023-08-21T06:22:46;23.20;99.90
2100;DHT22;1055;48.854;9.302;2023-08-21T06:25:12;23.40;99.90
2100;DHT22;1055;48.854;9.302;2023-08-21T06:27:39;23.70;99.90
2100;DHT22;1055;48.854;9.302;2023-08-21T06:30:05;23.60;99.90
2100;DHT22;1055;48.854;9.302;2023-08-21T06:32:31;23.60;99.90
2100;DHT22;1055;48.854;9.302;2023-08-21T06:34:58;23.70;99.90
2100;DHT22;1055;48.854;9.302;2023-08-21T06:37:24;23.80;99.90
2100;DHT22;1055;48.854;9.302;2023-08-21T06:39:50;23.90;99.90
2100;DHT22;1055;48.854;9.302;2023-08-21T06:42:16;23.80;99.90
2100;DHT22;1055;48.854;9.302;2023-08-21T06:44:41;23.80;99.90
2100;DHT22;1055;48.854;9.302;2023-08-21T06:47:07;23.90;99.90
2100;DHT22;1055;48.854;9.302;2023-08-21T06:49:33;23.90;99.90
2100;DHT22;1055;48.854;9.302;2023-08-21T06:51:59;24.00;99.90
2100;DHT22;1055;48.854;9.302;2023-08-21T06:54:24;24.10;99.90
2100;DHT22;1055;48.854;9.302;2023-08-21T06:56:50;24.10;99.90
2100;DHT22;1055;48.854;9.302;2023-08-21T06:59:15;24.30;99.90
2100;DHT22;1055;48.854;9.302;2023-08-21T07:01:41;24.30;99.90
2100;DHT22;1055;48.854;9.302;2023-08-21T07:04:07;24.50;99.90
2100;DHT22;1055;48.854;9.302;2023-08-21T07:06:33;24.50;99.90
2100;DHT22;1055;48.854;9.302;2023-08-21T07:08:59;24.50;99.90
2100;DHT22;1055;48.854;9.302;2023-08-21T07:11:25;24.50;99.90
2100;DHT22;1055;48.854;9.302;2023-08-21T07:13:50;24.50;99.90
2100;DHT22;1055;48.854;9.302;2023-08-21T07:16:17;24.50;99.90
2100;DHT22;1055;48.854;9.302;2023-08-21T07:18:44;24.60;99.90
2100;DHT22;1055;48.854;9.302;2023-08-21T07:21:09;24.70;99.90
2100;DHT22;1055;48.854;9.302;2023-08-21T07:23:35;24.80;99.90
2100;DHT22;1055;48.854;9.302;2023-08-21T07:26:02;24.80;99.90
2100;DHT22;1055;48.854;9.302;2023-08-21T07:28:30;24.90;99.90
2100;DHT22;1055;48.854;9.302;2023-08-21T07:30:59;25.00;99.90
2100;DHT22;1055;48.854;9.302;2023-08-21T07:33:26;25.00;99.90
2100;DHT22;1055;48.854;9.302;2023-08-21T07:36:04;25.30;99.90
2100;DHT22;1055;48.854;9.302;2023-08-21T07:38:30;25.50;99.90
2100;DHT22;1055;48.854;9.302;2023-08-21T07:41:09;25.40;99.90
2100;DHT22;1055;48.854;9.302;2023-08-21T07:43:44;25.70;99.90
2100;DHT22;1055;48.854;9.302;2023-08-21T07:46:12;25.80;99.90
2100;DHT22;1055;48.854;9.302;2023-08-21T07:48:42;26.00;99.90
2100;DHT22;1055;48.854;9.302;2023-08-21T07:51:08;26.00;99.90
2100;DHT22;1055;48.854;9.302;2023-08-21T07:56:56;26.30;99.90
2100;DHT22;1055;48.854;9.302;2023-08-21T07:59:22;26.10;99.90
2100;DHT22;1055;48.854;9.302;2023-08-21T08:01:49;26.30;99.90
2100;DHT22;1055;48.854;9.302;2023-08-21T08:04:15;26.40;99.90
2100;DHT22;1055;48.854;9.302;2023-08-21T08:06:41;26.40;99.90
2100;DHT22;1055;48.854;9.302;2023-08-21T08:09:07;26.50;99.90
2100;DHT22;1055;48.854;9.302;2023-08-21T08:11:32;26.60;99.90
2100;DHT22;1055;48.854;9.302;2023-08-21T08:13:59;26.50;99.90
2100;DHT22;1055;48.854;9.302;2023-08-21T08:16:24;26.50;99.90
2100;DHT22;1055;48.854;9.302;2023-08-21T08:18:50;26.60;99.90
2100;DHT22;1055;48.854;9.302;2023-08-21T08:21:16;26.50;99.90
2100;DHT22;1055;48.854;9.302;2023-08-21T08:23:41;26.50;99.90
2100;DHT22;1055;48.854;9.302;2023-08-21T08:26:07;26.60;99.90
2100;DHT22;1055;48.854;9.302;2023-08-21T08:28:34;26.60;99.90
2100;DHT22;1055;48.854;9.302;2023-08-21T08:31:00;26.70;99.90
2100;DHT22;1055;48.854;9.302;2023-08-21T08:33:26;26.80;99.90
2100;DHT22;1055;48.854;9.302;2023-08-21T08:35:52;26.80;99.90
2100;DHT22;1055;48.854;9.302;2023-08-21T08:38:18;26.80;99.90
2100;DHT22;1055;48.854;9.302;2023-08-21T08:40:45;26.90;99.90
2100;DHT22;1055;48.854;9.302;2023-08-21T08:43:12;27.00;99.90
2100;DHT22;1055;48.854;9.302;2023-08-21T08:45:40;27.00;99.90
2100;DHT22;1055;48.854;9.302;2023-08-21T08:51:30;27.10;99.90
2100;DHT22;1055;48.854;9.302;2023-08-21T08:53:58;27.20;99.90
2100;DHT22;1055;48.854;9.302;2023-08-21T08:56:24;27.10;99.90
2100;DHT22;1055;48.854;9.302;2023-08-21T08:58:50;27.20;99.90
2100;DHT22;1055;48.854;9.302;2023-08-21T09:01:16;27.30;99.90
2100;DHT22;1055;48.854;9.302;2023-08-21T09:03:41;27.30;99.90
2100;DHT22;1055;48.854;9.302;2023-08-21T09:06:08;27.50;99.90
2100;DHT22;1055;48.854;9.302;2023-08-21T09:08:34;27.40;99.90
2100;DHT22;1055;48.854;9.302;2023-08-21T09:11:03;27.50;99.90
2100;DHT22;1055;48.854;9.302;2023-08-21T09:13:31;27.70;99.90
2100;DHT22;1055;48.854;9.302;2023-08-21T09:15:57;27.80;99.90
2100;DHT22;1055;48.854;9.302;2023-08-21T09:18:23;27.80;99.90
2100;DHT22;1055;48.854;9.302;2023-08-21T09:20:49;28.00;99.90
2100;DHT22;1055;48.854;9.302;2023-08-21T09:23:16;28.10;99.90
2100;DHT22;1055;48.854;9.302;2023-08-21T09:25:45;28.20;99.90
2100;DHT22;1055;48.854;9.302;2023-08-21T09:28:13;28.20;99.90
2100;DHT22;1055;48.854;9.302;2023-08-21T09:33:13;28.50;99.90
2100;DHT22;1055;48.854;9.302;2023-08-21T09:35:39;28.60;99.90
2100;DHT22;1055;48.854;9.302;2023-08-21T09:38:07;28.50;99.90
2100;DHT22;1055;48.854;9.302;2023-08-21T09:40:33;28.70;99.90
2100;DHT22;1055;48.854;9.302;2023-08-21T09:43:00;28.70;99.90
2100;DHT22;1055;48.854;9.302;2023-08-21T09:45:29;28.70;99.90
2100;DHT22;1055;48.854;9.302;2023-08-21T09:47:56;28.60;99.90
2100;DHT22;1055;48.854;9.302;2023-08-21T09:50:24;28.80;99.90
2100;DHT22;1055;48.854;9.302;2023-08-21T09:52:51;28.90;99.90
2100;DHT22;1055;48.854;9.302;2023-08-21T09:55:17;28.80;99.90
2100;DHT22;1055;48.854;9.302;2023-08-21T09:57:43;29.00;99.90
2100;DHT22;1055;48.854;9.302;2023-08-21T10:00:11;29.10;99.90
2100;DHT22;1055;48.854;9.302;2023-08-21T10:02:59;29.20;99.90
2100;DHT22;1055;48.854;9.302;2023-08-21T10:05:26;29.30;99.90
2100;DHT22;1055;48.854;9.302;2023-08-21T10:07:53;29.30;99.90
2100;DHT22;1055;48.854;9.302;2023-08-21T10:10:19;29.40;99.90
2100;DHT22;1055;48.854;9.302;2023-08-21T10:12:45;29.50;99.90
2100;DHT22;1055;48.854;9.302;2023-08-21T10:15:11;29.60;99.90
2100;DHT22;1055;48.854;9.302;2023-08-21T10:17:37;29.80;99.90
2100;DHT22;1055;48.854;9.302;2023-08-21T10:20:07;29.80;99.90
2100;DHT22;1055;48.854;9.302;2023-08-21T10:26:00;29.60;99.90
2100;DHT22;1055;48.854;9.302;2023-08-21T10:28:43;29.80;99.90
2100;DHT22;1055;48.854;9.302;2023-08-21T10:31:32;29.90;99.90
2100;DHT22;1055;48.854;9.302;2023-08-21T10:33:59;29.80;99.90
2100;DHT22;1055;48.854;9.302;2023-08-21T10:36:38;30.00;99.90
2100;DHT22;1055;48.854;9.302;2023-08-21T10:39:24;30.10;99.90
2100;DHT22;1055;48.854;9.302;2023-08-21T10:42:10;30.10;99.90
2100;DHT22;1055;48.854;9.302;2023-08-21T10:50:00;30.40;99.90
2100;DHT22;1055;48.854;9.302;2023-08-21T10:52:31;30.30;99.90
2100;DHT22;1055;48.854;9.302;2023-08-21T10:55:00;30.30;99.90
2100;DHT22;1055;48.854;9.302;2023-08-21T10:57:29;30.40;99.90
2100;DHT22;1055;48.854;9.302;2023-08-21T11:00:00;30.50;99.90
2100;DHT22;1055;48.854;9.302;2023-08-21T11:02:27;30.40;99.90
2100;DHT22;1055;48.854;9.302;2023-08-21T11:04:57;30.50;99.90
2100;DHT22;1055;48.854;9.302;2023-08-21T11:07:23;30.40;99.90
2100;DHT22;1055;48.854;9.302;2023-08-21T11:09:49;30.60;99.90
2100;DHT22;1055;48.854;9.302;2023-08-21T11:12:17;30.70;99.90
2100;DHT22;1055;48.854;9.302;2023-08-21T11:14:43;30.80;99.90
2100;DHT22;1055;48.854;9.302;2023-08-21T11:17:10;31.00;99.90
2100;DHT22;1055;48.854;9.302;2023-08-21T11:19:36;31.00;99.90
2100;DHT22;1055;48.854;9.302;2023-08-21T11:22:03;31.00;99.90
2100;DHT22;1055;48.854;9.302;2023-08-21T11:24:47;31.00;99.90
2100;DHT22;1055;48.854;9.302;2023-08-21T11:27:17;31.10;99.90
2100;DHT22;1055;48.854;9.302;2023-08-21T11:29:47;31.20;99.90
2100;DHT22;1055;48.854;9.302;2023-08-21T11:32:21;31.30;99.90
2100;DHT22;1055;48.854;9.302;2023-08-21T11:34:57;31.40;99.90
2100;DHT22;1055;48.854;9.302;2023-08-21T11:37:25;31.50;99.90
2100;DHT22;1055;48.854;9.302;2023-08-21T11:39:53;31.50;99.90
2100;DHT22;1055;48.854;9.302;2023-08-21T11:42:20;31.70;99.90
2100;DHT22;1055;48.854;9.302;2023-08-21T11:44:52;31.70;99.90
2100;DHT22;1055;48.854;9.302;2023-08-21T11:47:20;31.60;99.90
2100;DHT22;1055;48.854;9.302;2023-08-21T11:49:46;31.70;99.90
2100;DHT22;1055;48.854;9.302;2023-08-21T11:52:17;31.70;99.90
2100;DHT22;1055;48.854;9.302;2023-08-21T11:54:43;31.60;99.90
2100;DHT22;1055;48.854;9.302;2023-08-21T11:57:13;31.60;99.90
2100;DHT22;1055;48.854;9.302;2023-08-21T11:59:40;31.70;99.90
2100;DHT22;1055;48.854;9.302;2023-08-21T12:02:18;31.90;99.90
2100;DHT22;1055;48.854;9.302;2023-08-21T12:04:44;31.90;99.90
2100;DHT22;1055;48.854;9.302;2023-08-21T12:07:09;32.10;99.90
2100;DHT22;1055;48.854;9.302;2023-08-21T12:09:35;32.30;99.90
2100;DHT22;1055;48.854;9.302;2023-08-21T12:12:05;32.30;99.90
2100;DHT22;1055;48.854;9.302;2023-08-21T12:14:31;32.30;99.90
2100;DHT22;1055;48.854;9.302;2023-08-21T12:16:56;32.50;99.90
2100;DHT22;1055;48.854;9.302;2023-08-21T12:19:22;32.60;99.90
2100;DHT22;1055;48.854;9.302;2023-08-21T12:21:50;32.70;99.90
2100;DHT22;1055;48.854;9.302;2023-08-21T12:24:15;32.50;99.90
2100;DHT22;1055;48.854;9.302;2023-08-21T12:26:41;32.80;99.90
2100;DHT22;1055;48.854;9.302;2023-08-21T12:29:07;32.90;99.90
2100;DHT22;1055;48.854;9.302;2023-08-21T12:31:32;32.80;99.90
2100;DHT22;1055;48.854;9.302;2023-08-21T12:33:58;32.90;99.90
2100;DHT22;1055;48.854;9.302;2023-08-21T12:36:24;33.10;99.90
2100;DHT22;1055;48.854;9.302;2023-08-21T12:38:50;33.50;99.90
2100;DHT22;1055;48.854;9.302;2023-08-21T12:41:16;33.10;99.90
2100;DHT22;1055;48.854;9.302;2023-08-21T12:43:44;33.30;99.90
2100;DHT22;1055;48.854;9.302;2023-08-21T12:46:10;33.20;99.90
2100;DHT22;1055;48.854;9.302;2023-08-21T12:48:36;33.60;99.90
2100;DHT22;1055;48.854;9.302;2023-08-21T12:51:02;34.00;99.90
2100;DHT22;1055;48.854;9.302;2023-08-21T12:53:28;34.20;99.90
2100;DHT22;1055;48.854;9.302;2023-08-21T12:55:53;34.10;98.20
2100;DHT22;1055;48.854;9.302;2023-08-21T12:58:19;34.40;99.10
2100;DHT22;1055;48.854;9.302;2023-08-21T13:00:45;34.40;97.60
2100;DHT22;1055;48.854;9.302;2023-08-21T13:03:11;34.40;97.20
2100;DHT22;1055;48.854;9.302;2023-08-21T13:05:37;34.90;96.60
2100;DHT22;1055;48.854;9.302;2023-08-21T13:08:03;34.80;95.50
2100;DHT22;1055;48.854;9.302;2023-08-21T13:10:29;34.50;96.50
2100;DHT22;1055;48.854;9.302;2023-08-21T13:12:54;34.70;95.80
2100;DHT22;1055;48.854;9.302;2023-08-21T13:15:20;34.40;96.20
2100;DHT22;1055;48.854;9.302;2023-08-21T13:17:46;34.40;96.60
2100;DHT22;1055;48.854;9.302;2023-08-21T13:20:11;35.30;95.00
2100;DHT22;1055;48.854;9.302;2023-08-21T13:22:55;35.50;93.10
2100;DHT22;1055;48.854;9.302;2023-08-21T13:25:23;35.50;93.40
2100;DHT22;1055;48.854;9.302;2023-08-21T13:27:53;35.10;92.90
2100;DHT22;1055;48.854;9.302;2023-08-21T14:04:32;37.40;82.50
2100;DHT22;1055;48.854;9.302;2023-08-21T14:06:58;37.10;79.90
2100;DHT22;1055;48.854;9.302;2023-08-21T14:11:50;36.40;81.80
2100;DHT22;1055;48.854;9.302;2023-08-21T14:14:16;36.70;81.70
2100;DHT22;1055;48.854;9.302;2023-08-21T14:16:42;37.20;78.30
2100;DHT22;1055;48.854;9.302;2023-08-21T14:33:47;37.70;76.20
2100;DHT22;1055;48.854;9.302;2023-08-21T14:36:12;37.80;76.00
2100;DHT22;1055;48.854;9.302;2023-08-21T14:38:38;37.70;76.60
2100;DHT22;1055;48.854;9.302;2023-08-21T14:41:03;37.90;77.60
2100;DHT22;1055;48.854;9.302;2023-08-21T14:43:29;38.30;74.80
2100;DHT22;1055;48.854;9.302;2023-08-21T14:48:23;38.50;73.50
2100;DHT22;1055;48.854;9.302;2023-08-21T14:50:49;38.50;74.40
2100;DHT22;1055;48.854;9.302;2023-08-21T14:53:15;38.40;73.20
2100;DHT22;1055;48.854;9.302;2023-08-21T14:58:06;37.80;71.00
2100;DHT22;1055;48.854;9.302;2023-08-21T15:03:44;37.90;71.70
2100;DHT22;1055;48.854;9.302;2023-08-21T15:06:11;38.00;70.00
2100;DHT22;1055;48.854;9.302;2023-08-21T15:08:39;38.00;70.80
2100;DHT22;1055;48.854;9.302;2023-08-21T15:11:06;38.40;71.70
2100;DHT22;1055;48.854;9.302;2023-08-21T15:13:31;38.10;68.60
2100;DHT22;1055;48.854;9.302;2023-08-21T15:15:57;37.30;71.00
2100;DHT22;1055;48.854;9.302;2023-08-21T15:18:23;37.60;70.20
2100;DHT22;1055;48.854;9.302;2023-08-21T15:20:49;37.90;69.50
2100;DHT22;1055;48.854;9.302;2023-08-21T15:23:16;37.70;69.70
2100;DHT22;1055;48.854;9.302;2023-08-21T15:25:42;38.20;69.80
2100;DHT22;1055;48.854;9.302;2023-08-21T15:28:08;36.80;67.80
2100;DHT22;1055;48.854;9.302;2023-08-21T15:30:34;36.10;71.40
2100;DHT22;1055;48.854;9.302;2023-08-21T15:33:00;37.40;71.30
2100;DHT22;1055;48.854;9.302;2023-08-21T15:35:25;38.00;70.30
2100;DHT22;1055;48.854;9.302;2023-08-21T15:37:51;38.10;68.80
2100;DHT22;1055;48.854;9.302;2023-08-21T15:40:17;37.80;69.20
2100;DHT22;1055;48.854;9.302;2023-08-21T15:42:42;36.40;72.00
2100;DHT22;1055;48.854;9.302;2023-08-21T15:45:08;36.60;71.30
2100;DHT22;1055;48.854;9.302;2023-08-21T15:47:34;36.80;72.30
2100;DHT22;1055;48.854;9.302;2023-08-21T15:50:00;37.20;72.20
2100;DHT22;1055;48.854;9.302;2023-08-21T15:52:25;37.70;72.00
2100;DHT22;1055;48.854;9.302;2023-08-21T15:54:51;38.20;70.40
2100;DHT22;1055;48.854;9.302;2023-08-21T15:57:19;38.60;68.10
2100;DHT22;1055;48.854;9.302;2023-08-21T15:59:45;38.50;68.20
2100;DHT22;1055;48.854;9.302;2023-08-21T16:02:11;38.30;68.30
2100;DHT22;1055;48.854;9.302;2023-08-21T16:04:36;38.80;68.10
2100;DHT22;1055;48.854;9.302;2023-08-21T16:07:02;38.90;68.00
2100;DHT22;1055;48.854;9.302;2023-08-21T16:16:46;37.90;66.60
2100;DHT22;1055;48.854;9.302;2023-08-21T16:19:12;38.00;67.90
2100;DHT22;1055;48.854;9.302;2023-08-21T16:21:39;37.60;69.20
2100;DHT22;1055;48.854;9.302;2023-08-21T16:24:04;37.60;69.70
2100;DHT22;1055;48.854;9.302;2023-08-21T16:26:30;37.50;69.70
2100;DHT22;1055;48.854;9.302;2023-08-21T16:28:56;37.50;71.50
2100;DHT22;1055;48.854;9.302;2023-08-21T16:31:24;37.40;72.60
2100;DHT22;1055;48.854;9.302;2023-08-21T16:33:49;37.70;71.00
2100;DHT22;1055;48.854;9.302;2023-08-21T16:36:15;37.80;70.00
2100;DHT22;1055;48.854;9.302;2023-08-21T16:38:40;37.70;70.80
2100;DHT22;1055;48.854;9.302;2023-08-21T16:41:06;37.80;69.60
2100;DHT22;1055;48.854;9.302;2023-08-21T16:43:32;37.70;69.30
2100;DHT22;1055;48.854;9.302;2023-08-21T16:45:57;37.70;70.20
2100;DHT22;1055;48.854;9.302;2023-08-21T16:48:23;37.80;69.90
2100;DHT22;1055;48.854;9.302;2023-08-21T16:50:49;37.20;69.50
2100;DHT22;1055;48.854;9.302;2023-08-21T16:53:15;37.40;71.30
2100;DHT22;1055;48.854;9.302;2023-08-21T16:55:41;37.50;70.40
2100;DHT22;1055;48.854;9.302;2023-08-21T16:58:07;37.60;70.80
2100;DHT22;1055;48.854;9.302;2023-08-21T17:00:33;37.10;71.20
2100;DHT22;1055;48.854;9.302;2023-08-21T17:02:59;37.10;70.80
2100;DHT22;1055;48.854;9.302;2023-08-21T17:05:25;37.10;71.40
2100;DHT22;1055;48.854;9.302;2023-08-21T17:07:51;37.10;71.70
2100;DHT22;1055;48.854;9.302;2023-08-21T17:10:17;37.10;72.00
2100;DHT22;1055;48.854;9.302;2023-08-21T17:12:43;37.00;71.90
2100;DHT22;1055;48.854;9.302;2023-08-21T17:15:11;37.10;72.60
2100;DHT22;1055;48.854;9.302;2023-08-21T17:17:36;37.00;72.70
2100;DHT22;1055;48.854;9.302;2023-08-21T17:20:02;36.70;72.90
2100;DHT22;1055;48.854;9.302;2023-08-21T17:22:29;35.80;75.00
2100;DHT22;1055;48.854;9.302;2023-08-21T17:24:55;35.40;74.80
2100;DHT22;1055;48.854;9.302;2023-08-21T17:27:21;34.50;77.00
2100;DHT22;1055;48.854;9.302;2023-08-21T17:29:47;34.30;79.20
2100;DHT22;1055;48.854;9.302;2023-08-21T17:32:13;34.30;79.00